This is the latest recevied weather packets stored in our database for station/object KB4MOX. If no packets are shown the sender has not sent any weather packets the latest 10 day(s).
| Time | Temp. | Humidity | Pressure | Rain* | Wind** | Luminosity | Snow |
|---|---|---|---|---|---|---|---|
| 1787855137 | 26.67° C | 76% | 1015.3 hPa | 0 mm | - | 226 W/m² | - |
| 1787854832 | 26.67° C | 75% | 1015.2 hPa | 0 mm | - | 193 W/m² | - |
| 1787854531 | 26.67° C | 75% | 1015.4 hPa | 0 mm | - | 173 W/m² | - |
| 1787854227 | 26.67° C | 77% | 1015.7 hPa | 0 mm | - | 162 W/m² | - |
| 1787853926 | 26.67° C | 77% | 1015.9 hPa | 0 mm | - | 187 W/m² | - |
| 1787853621 | 27.22° C | 77% | 1015.8 hPa | 0 mm | - | 155 W/m² | - |
| 1787853319 | 26.67° C | 83% | 1015.9 hPa | 0 mm | - | 221 W/m² | - |
| 1787853015 | 26.67° C | 84% | 1015.7 hPa | 0 mm | - | 188 W/m² | - |
| 1787852709 | 26.67° C | 85% | 1015.8 hPa | 0 mm | - | 181 W/m² | - |
| 1787852408 | 27.22° C | 86% | 1015.5 hPa | 0 mm | - | 185 W/m² | - |
| 1787852107 | 27.22° C | 86% | 1015.5 hPa | 0 mm | - | 196 W/m² | - |
| 1787851803 | 27.22° C | 87% | 1015.3 hPa | 0 mm | - | 226 W/m² | - |
| 1787851497 | 27.22° C | 87% | 1015.3 hPa | 0 mm | - | 212 W/m² | - |
| 1787851191 | 27.22° C | 85% | 1015.4 hPa | 0 mm | - | 176 W/m² | - |
| 1787850887 | 28.33° C | 82% | 1015.7 hPa | 0 mm | - | 170 W/m² | - |
| 1787850584 | 29.44° C | 74% | 1015.8 hPa | 0 mm | - | 172 W/m² | - |
| 1787850284 | 30.56° C | 68% | 1015.8 hPa | 0 mm | - | 153 W/m² | - |
| 1787849983 | 31.11° C | 65% | 1015.7 hPa | 0 mm | - | 241 W/m² | - |
| 1787849678 | 31.11° C | 64% | 1015.7 hPa | 0 mm | - | 207 W/m² | - |
| 1787849373 | 31.11° C | 63% | 1015.8 hPa | 0 mm | - | 194 W/m² | - |
| 1787849072 | 31.67° C | 63% | 1016 hPa | 0 mm | - | 203 W/m² | - |
| 1787848767 | 31.67° C | 62% | 1016 hPa | 0 mm | - | 275 W/m² | - |
| 1787848466 | 31.11° C | 63% | 1016.2 hPa | 0 mm | - | 906 W/m² | - |
| 1787848161 | 31.11° C | 64% | 1016.4 hPa | 0 mm | - | 372 W/m² | - |
| 1787847861 | 31.67° C | 62% | 1016.3 hPa | 0 mm | - | 190 W/m² | - |
* Rain latest hour (hover to see other rain measurements)
** Current wind speed in m/s (hover to see current wind gust speed)